sensor_id;sensor_type;location;lat;lon;timestamp;P1;durP1;ratioP1;P2;durP2;ratioP2
59950;SDS011;45812;53.540;9.774;2023-03-01T00:00:45;8.45;;;4.57;;
59950;SDS011;45812;53.540;9.774;2023-03-01T00:03:11;8.65;;;3.90;;
59950;SDS011;45812;53.540;9.774;2023-03-01T00:05:42;7.30;;;4.43;;
59950;SDS011;45812;53.540;9.774;2023-03-01T00:08:08;8.65;;;4.68;;
59950;SDS011;45812;53.540;9.774;2023-03-01T00:10:34;6.82;;;4.05;;
59950;SDS011;45812;53.540;9.774;2023-03-01T00:12:59;12.38;;;4.70;;
59950;SDS011;45812;53.540;9.774;2023-03-01T00:15:24;13.80;;;4.78;;
59950;SDS011;45812;53.540;9.774;2023-03-01T00:17:49;8.82;;;5.03;;
59950;SDS011;45812;53.540;9.774;2023-03-01T00:20:14;8.75;;;4.50;;
59950;SDS011;45812;53.540;9.774;2023-03-01T00:22:40;9.98;;;4.55;;
59950;SDS011;45812;53.540;9.774;2023-03-01T00:25:05;9.95;;;4.50;;
59950;SDS011;45812;53.540;9.774;2023-03-01T00:27:30;9.75;;;4.38;;
59950;SDS011;45812;53.540;9.774;2023-03-01T00:29:56;10.98;;;4.28;;
59950;SDS011;45812;53.540;9.774;2023-03-01T00:32:21;10.52;;;4.45;;
59950;SDS011;45812;53.540;9.774;2023-03-01T00:34:46;9.68;;;4.82;;
59950;SDS011;45812;53.540;9.774;2023-03-01T00:37:19;11.30;;;3.85;;
59950;SDS011;45812;53.540;9.774;2023-03-01T00:39:47;7.10;;;4.75;;
59950;SDS011;45812;53.540;9.774;2023-03-01T00:42:13;8.85;;;4.85;;
59950;SDS011;45812;53.540;9.774;2023-03-01T00:44:38;14.07;;;4.68;;
59950;SDS011;45812;53.540;9.774;2023-03-01T00:47:04;9.18;;;4.70;;
59950;SDS011;45812;53.540;9.774;2023-03-01T00:49:29;6.88;;;4.20;;
59950;SDS011;45812;53.540;9.774;2023-03-01T00:51:54;8.75;;;4.30;;
59950;SDS011;45812;53.540;9.774;2023-03-01T00:54:20;9.23;;;4.38;;
59950;SDS011;45812;53.540;9.774;2023-03-01T00:56:45;7.68;;;3.97;;
59950;SDS011;45812;53.540;9.774;2023-03-01T00:59:10;7.47;;;4.15;;
59950;SDS011;45812;53.540;9.774;2023-03-01T01:01:35;14.43;;;4.32;;
59950;SDS011;45812;53.540;9.774;2023-03-01T01:04:04;7.05;;;4.38;;
59950;SDS011;45812;53.540;9.774;2023-03-01T01:06:32;6.32;;;3.90;;
59950;SDS011;45812;53.540;9.774;2023-03-01T01:08:59;11.93;;;4.15;;
59950;SDS011;45812;53.540;9.774;2023-03-01T01:11:25;9.93;;;3.85;;
59950;SDS011;45812;53.540;9.774;2023-03-01T01:13:52;8.70;;;4.40;;
59950;SDS011;45812;53.540;9.774;2023-03-01T01:16:18;7.93;;;4.47;;
59950;SDS011;45812;53.540;9.774;2023-03-01T01:18:45;10.68;;;4.40;;
59950;SDS011;45812;53.540;9.774;2023-03-01T01:21:11;13.75;;;4.70;;
59950;SDS011;45812;53.540;9.774;2023-03-01T01:23:39;9.43;;;4.25;;
59950;SDS011;45812;53.540;9.774;2023-03-01T01:26:06;9.63;;;4.32;;
59950;SDS011;45812;53.540;9.774;2023-03-01T01:28:33;6.53;;;3.88;;
59950;SDS011;45812;53.540;9.774;2023-03-01T01:30:59;6.70;;;4.10;;
59950;SDS011;45812;53.540;9.774;2023-03-01T01:33:24;6.55;;;4.07;;
59950;SDS011;45812;53.540;9.774;2023-03-01T01:35:50;9.05;;;4.32;;
59950;SDS011;45812;53.540;9.774;2023-03-01T01:38:15;8.70;;;4.35;;
59950;SDS011;45812;53.540;9.774;2023-03-01T01:40:44;13.23;;;4.38;;
59950;SDS011;45812;53.540;9.774;2023-03-01T01:43:21;9.75;;;4.55;;
59950;SDS011;45812;53.540;9.774;2023-03-01T01:45:49;9.68;;;4.30;;
59950;SDS011;45812;53.540;9.774;2023-03-01T01:48:17;6.85;;;3.33;;
59950;SDS011;45812;53.540;9.774;2023-03-01T01:50:54;7.18;;;3.85;;
59950;SDS011;45812;53.540;9.774;2023-03-01T01:53:23;6.75;;;4.07;;
59950;SDS011;45812;53.540;9.774;2023-03-01T01:55:51;6.70;;;3.88;;
59950;SDS011;45812;53.540;9.774;2023-03-01T01:58:21;6.07;;;3.90;;
59950;SDS011;45812;53.540;9.774;2023-03-01T02:00:49;7.25;;;3.78;;
59950;SDS011;45812;53.540;9.774;2023-03-01T02:03:17;7.32;;;3.50;;
59950;SDS011;45812;53.540;9.774;2023-03-01T02:06:02;9.07;;;3.83;;
59950;SDS011;45812;53.540;9.774;2023-03-01T02:08:36;5.15;;;3.40;;
59950;SDS011;45812;53.540;9.774;2023-03-01T02:11:04;5.10;;;3.25;;
59950;SDS011;45812;53.540;9.774;2023-03-01T02:13:30;4.53;;;3.20;;
59950;SDS011;45812;53.540;9.774;2023-03-01T02:15:57;6.47;;;3.60;;
59950;SDS011;45812;53.540;9.774;2023-03-01T02:18:23;6.30;;;3.20;;
59950;SDS011;45812;53.540;9.774;2023-03-01T02:21:05;6.78;;;3.70;;
59950;SDS011;45812;53.540;9.774;2023-03-01T02:23:38;6.40;;;3.30;;
59950;SDS011;45812;53.540;9.774;2023-03-01T02:26:06;4.88;;;3.30;;
59950;SDS011;45812;53.540;9.774;2023-03-01T02:28:38;5.53;;;2.90;;
59950;SDS011;45812;53.540;9.774;2023-03-01T02:31:07;8.13;;;4.20;;
59950;SDS011;45812;53.540;9.774;2023-03-01T02:33:53;4.25;;;3.35;;
59950;SDS011;45812;53.540;9.774;2023-03-01T02:36:20;3.53;;;2.55;;
59950;SDS011;45812;53.540;9.774;2023-03-01T02:38:48;5.40;;;3.17;;
59950;SDS011;45812;53.540;9.774;2023-03-01T02:41:17;6.68;;;2.97;;
59950;SDS011;45812;53.540;9.774;2023-03-01T02:43:44;8.18;;;3.92;;
59950;SDS011;45812;53.540;9.774;2023-03-01T02:46:27;7.68;;;3.45;;
59950;SDS011;45812;53.540;9.774;2023-03-01T02:48:54;5.28;;;3.65;;
59950;SDS011;45812;53.540;9.774;2023-03-01T02:54:02;5.95;;;3.00;;
59950;SDS011;45812;53.540;9.774;2023-03-01T02:56:36;8.68;;;3.05;;
59950;SDS011;45812;53.540;9.774;2023-03-01T02:59:01;6.15;;;3.78;;
59950;SDS011;45812;53.540;9.774;2023-03-01T03:01:27;6.55;;;3.47;;
59950;SDS011;45812;53.540;9.774;2023-03-01T03:04:01;6.07;;;3.20;;
59950;SDS011;45812;53.540;9.774;2023-03-01T03:06:31;5.13;;;3.40;;
59950;SDS011;45812;53.540;9.774;2023-03-01T03:08:56;7.13;;;4.05;;
59950;SDS011;45812;53.540;9.774;2023-03-01T03:11:21;7.43;;;3.25;;
59950;SDS011;45812;53.540;9.774;2023-03-01T03:13:47;6.82;;;3.20;;
59950;SDS011;45812;53.540;9.774;2023-03-01T03:16:13;5.90;;;3.45;;
59950;SDS011;45812;53.540;9.774;2023-03-01T03:18:38;7.13;;;3.42;;
59950;SDS011;45812;53.540;9.774;2023-03-01T03:21:06;8.88;;;3.58;;
59950;SDS011;45812;53.540;9.774;2023-03-01T03:23:35;5.47;;;3.42;;
59950;SDS011;45812;53.540;9.774;2023-03-01T03:26:00;7.68;;;3.33;;
59950;SDS011;45812;53.540;9.774;2023-03-01T03:28:28;7.40;;;3.58;;
59950;SDS011;45812;53.540;9.774;2023-03-01T03:30:53;8.75;;;3.88;;
59950;SDS011;45812;53.540;9.774;2023-03-01T03:33:19;6.80;;;3.00;;
59950;SDS011;45812;53.540;9.774;2023-03-01T03:35:45;7.63;;;3.22;;
59950;SDS011;45812;53.540;9.774;2023-03-01T03:38:14;9.85;;;3.75;;
59950;SDS011;45812;53.540;9.774;2023-03-01T03:40:44;3.90;;;2.83;;
59950;SDS011;45812;53.540;9.774;2023-03-01T03:43:36;6.70;;;3.08;;
59950;SDS011;45812;53.540;9.774;2023-03-01T03:46:03;9.60;;;3.67;;
59950;SDS011;45812;53.540;9.774;2023-03-01T03:48:30;6.20;;;3.08;;
59950;SDS011;45812;53.540;9.774;2023-03-01T03:50:57;7.35;;;3.58;;
59950;SDS011;45812;53.540;9.774;2023-03-01T03:53:24;3.67;;;2.88;;
59950;SDS011;45812;53.540;9.774;2023-03-01T03:55:51;7.65;;;3.42;;
59950;SDS011;45812;53.540;9.774;2023-03-01T03:58:17;7.97;;;3.20;;
59950;SDS011;45812;53.540;9.774;2023-03-01T04:00:44;6.40;;;3.55;;
59950;SDS011;45812;53.540;9.774;2023-03-01T04:03:12;6.78;;;3.22;;
59950;SDS011;45812;53.540;9.774;2023-03-01T04:05:39;6.85;;;3.92;;
59950;SDS011;45812;53.540;9.774;2023-03-01T04:08:05;6.30;;;3.60;;
59950;SDS011;45812;53.540;9.774;2023-03-01T04:13:06;8.57;;;4.15;;
59950;SDS011;45812;53.540;9.774;2023-03-01T04:15:35;7.55;;;3.72;;
59950;SDS011;45812;53.540;9.774;2023-03-01T04:18:01;7.25;;;3.80;;
59950;SDS011;45812;53.540;9.774;2023-03-01T04:20:28;7.72;;;3.80;;
59950;SDS011;45812;53.540;9.774;2023-03-01T04:22:59;7.20;;;3.63;;
59950;SDS011;45812;53.540;9.774;2023-03-01T04:25:41;10.70;;;4.07;;
59950;SDS011;45812;53.540;9.774;2023-03-01T04:28:39;10.15;;;4.15;;
59950;SDS011;45812;53.540;9.774;2023-03-01T04:31:11;7.45;;;4.20;;
59950;SDS011;45812;53.540;9.774;2023-03-01T04:33:41;4.63;;;3.67;;
59950;SDS011;45812;53.540;9.774;2023-03-01T04:36:09;10.25;;;3.92;;
59950;SDS011;45812;53.540;9.774;2023-03-01T04:38:36;7.57;;;3.60;;
59950;SDS011;45812;53.540;9.774;2023-03-01T04:41:03;7.45;;;3.95;;
59950;SDS011;45812;53.540;9.774;2023-03-01T04:43:29;6.35;;;3.67;;
59950;SDS011;45812;53.540;9.774;2023-03-01T04:45:54;5.43;;;3.42;;
59950;SDS011;45812;53.540;9.774;2023-03-01T04:48:27;7.95;;;4.07;;
59950;SDS011;45812;53.540;9.774;2023-03-01T04:50:52;10.50;;;3.78;;
59950;SDS011;45812;53.540;9.774;2023-03-01T04:53:18;6.63;;;3.90;;
59950;SDS011;45812;53.540;9.774;2023-03-01T04:55:43;9.18;;;4.15;;
59950;SDS011;45812;53.540;9.774;2023-03-01T04:58:08;5.70;;;3.47;;
59950;SDS011;45812;53.540;9.774;2023-03-01T05:00:34;6.13;;;3.75;;
59950;SDS011;45812;53.540;9.774;2023-03-01T05:03:00;10.95;;;3.90;;
59950;SDS011;45812;53.540;9.774;2023-03-01T05:05:27;6.63;;;3.75;;
59950;SDS011;45812;53.540;9.774;2023-03-01T05:08:03;7.60;;;3.88;;
59950;SDS011;45812;53.540;9.774;2023-03-01T05:10:31;11.85;;;3.95;;
59950;SDS011;45812;53.540;9.774;2023-03-01T05:12:59;8.45;;;4.15;;
59950;SDS011;45812;53.540;9.774;2023-03-01T05:15:25;11.38;;;4.53;;
59950;SDS011;45812;53.540;9.774;2023-03-01T05:17:53;6.40;;;3.75;;
59950;SDS011;45812;53.540;9.774;2023-03-01T05:20:24;6.63;;;3.55;;
59950;SDS011;45812;53.540;9.774;2023-03-01T05:22:57;6.45;;;3.90;;
59950;SDS011;45812;53.540;9.774;2023-03-01T05:25:24;9.02;;;3.75;;
59950;SDS011;45812;53.540;9.774;2023-03-01T05:27:49;5.75;;;3.83;;
59950;SDS011;45812;53.540;9.774;2023-03-01T05:30:15;8.88;;;4.05;;
59950;SDS011;45812;53.540;9.774;2023-03-01T05:32:46;7.80;;;3.25;;
59950;SDS011;45812;53.540;9.774;2023-03-01T05:35:14;6.47;;;3.88;;
59950;SDS011;45812;53.540;9.774;2023-03-01T05:37:44;7.63;;;4.15;;
59950;SDS011;45812;53.540;9.774;2023-03-01T05:40:13;8.15;;;3.83;;
59950;SDS011;45812;53.540;9.774;2023-03-01T05:42:42;6.13;;;3.97;;
59950;SDS011;45812;53.540;9.774;2023-03-01T05:45:08;6.88;;;3.78;;
59950;SDS011;45812;53.540;9.774;2023-03-01T05:47:35;5.65;;;3.88;;
59950;SDS011;45812;53.540;9.774;2023-03-01T05:50:00;6.97;;;4.20;;
59950;SDS011;45812;53.540;9.774;2023-03-01T05:52:25;8.50;;;4.07;;
59950;SDS011;45812;53.540;9.774;2023-03-01T05:54:51;12.15;;;4.05;;
59950;SDS011;45812;53.540;9.774;2023-03-01T05:57:16;10.02;;;4.22;;
59950;SDS011;45812;53.540;9.774;2023-03-01T05:59:41;6.20;;;3.78;;
59950;SDS011;45812;53.540;9.774;2023-03-01T06:02:07;7.55;;;3.80;;
59950;SDS011;45812;53.540;9.774;2023-03-01T06:04:32;5.28;;;3.30;;
59950;SDS011;45812;53.540;9.774;2023-03-01T06:06:57;4.82;;;3.15;;
59950;SDS011;45812;53.540;9.774;2023-03-01T06:09:22;9.05;;;4.05;;
59950;SDS011;45812;53.540;9.774;2023-03-01T06:11:47;6.22;;;3.97;;
59950;SDS011;45812;53.540;9.774;2023-03-01T06:14:13;8.20;;;4.13;;
59950;SDS011;45812;53.540;9.774;2023-03-01T06:16:39;7.90;;;3.90;;
59950;SDS011;45812;53.540;9.774;2023-03-01T06:19:05;10.68;;;3.45;;
59950;SDS011;45812;53.540;9.774;2023-03-01T06:21:30;10.82;;;3.72;;
59950;SDS011;45812;53.540;9.774;2023-03-01T06:23:55;8.30;;;4.05;;
59950;SDS011;45812;53.540;9.774;2023-03-01T06:26:20;7.90;;;4.03;;
59950;SDS011;45812;53.540;9.774;2023-03-01T06:28:46;6.30;;;3.47;;
59950;SDS011;45812;53.540;9.774;2023-03-01T06:31:11;6.85;;;4.15;;
59950;SDS011;45812;53.540;9.774;2023-03-01T06:33:36;9.95;;;4.28;;
59950;SDS011;45812;53.540;9.774;2023-03-01T06:36:02;9.70;;;4.28;;
59950;SDS011;45812;53.540;9.774;2023-03-01T06:38:27;6.75;;;4.10;;
59950;SDS011;45812;53.540;9.774;2023-03-01T06:40:53;8.48;;;4.00;;
59950;SDS011;45812;53.540;9.774;2023-03-01T06:43:20;6.03;;;3.75;;
59950;SDS011;45812;53.540;9.774;2023-03-01T06:45:45;6.85;;;3.70;;
59950;SDS011;45812;53.540;9.774;2023-03-01T06:48:10;8.15;;;4.07;;
59950;SDS011;45812;53.540;9.774;2023-03-01T06:50:36;8.82;;;3.97;;
59950;SDS011;45812;53.540;9.774;2023-03-01T06:53:03;8.60;;;4.38;;
59950;SDS011;45812;53.540;9.774;2023-03-01T06:55:29;5.85;;;3.72;;
59950;SDS011;45812;53.540;9.774;2023-03-01T06:57:56;8.80;;;4.45;;
59950;SDS011;45812;53.540;9.774;2023-03-01T07:00:22;7.28;;;4.30;;
59950;SDS011;45812;53.540;9.774;2023-03-01T07:02:48;9.18;;;4.30;;
59950;SDS011;45812;53.540;9.774;2023-03-01T07:05:13;6.40;;;4.13;;
59950;SDS011;45812;53.540;9.774;2023-03-01T07:07:38;8.13;;;3.58;;
59950;SDS011;45812;53.540;9.774;2023-03-01T07:10:04;7.55;;;4.38;;
59950;SDS011;45812;53.540;9.774;2023-03-01T07:12:30;5.45;;;3.70;;
59950;SDS011;45812;53.540;9.774;2023-03-01T07:14:55;9.20;;;3.95;;
59950;SDS011;45812;53.540;9.774;2023-03-01T07:17:20;9.48;;;3.70;;
59950;SDS011;45812;53.540;9.774;2023-03-01T07:19:45;6.75;;;3.70;;
59950;SDS011;45812;53.540;9.774;2023-03-01T07:22:11;7.38;;;4.03;;
59950;SDS011;45812;53.540;9.774;2023-03-01T07:24:36;8.57;;;4.13;;
59950;SDS011;45812;53.540;9.774;2023-03-01T07:27:01;5.22;;;3.65;;
59950;SDS011;45812;53.540;9.774;2023-03-01T07:29:26;7.57;;;4.30;;
59950;SDS011;45812;53.540;9.774;2023-03-01T07:31:53;8.73;;;4.28;;
59950;SDS011;45812;53.540;9.774;2023-03-01T07:34:18;6.95;;;3.80;;
59950;SDS011;45812;53.540;9.774;2023-03-01T07:36:44;9.73;;;4.50;;
59950;SDS011;45812;53.540;9.774;2023-03-01T07:39:10;9.07;;;4.30;;
59950;SDS011;45812;53.540;9.774;2023-03-01T07:41:36;8.23;;;3.97;;
59950;SDS011;45812;53.540;9.774;2023-03-01T07:44:01;9.73;;;4.30;;
59950;SDS011;45812;53.540;9.774;2023-03-01T07:46:26;8.52;;;4.03;;
59950;SDS011;45812;53.540;9.774;2023-03-01T07:48:51;9.82;;;3.72;;
59950;SDS011;45812;53.540;9.774;2023-03-01T07:51:17;6.28;;;4.55;;
59950;SDS011;45812;53.540;9.774;2023-03-01T07:53:45;12.10;;;4.55;;
59950;SDS011;45812;53.540;9.774;2023-03-01T07:56:12;7.15;;;3.95;;
59950;SDS011;45812;53.540;9.774;2023-03-01T07:58:39;10.93;;;4.65;;
59950;SDS011;45812;53.540;9.774;2023-03-01T08:01:07;9.80;;;4.35;;
59950;SDS011;45812;53.540;9.774;2023-03-01T08:03:34;7.75;;;4.05;;
59950;SDS011;45812;53.540;9.774;2023-03-01T08:06:01;6.88;;;3.72;;
59950;SDS011;45812;53.540;9.774;2023-03-01T08:08:30;7.95;;;4.60;;
59950;SDS011;45812;53.540;9.774;2023-03-01T08:10:56;8.60;;;4.55;;
59950;SDS011;45812;53.540;9.774;2023-03-01T08:13:22;8.43;;;4.90;;
59950;SDS011;45812;53.540;9.774;2023-03-01T08:15:47;6.50;;;4.15;;
59950;SDS011;45812;53.540;9.774;2023-03-01T08:18:16;8.77;;;4.10;;
59950;SDS011;45812;53.540;9.774;2023-03-01T08:20:42;7.95;;;4.30;;
59950;SDS011;45812;53.540;9.774;2023-03-01T08:23:08;7.80;;;4.43;;
59950;SDS011;45812;53.540;9.774;2023-03-01T08:25:33;8.68;;;4.60;;
59950;SDS011;45812;53.540;9.774;2023-03-01T08:27:59;7.78;;;4.45;;
59950;SDS011;45812;53.540;9.774;2023-03-01T08:30:24;7.20;;;3.80;;
59950;SDS011;45812;53.540;9.774;2023-03-01T08:32:49;6.93;;;4.20;;
59950;SDS011;45812;53.540;9.774;2023-03-01T08:35:15;7.15;;;4.10;;
59950;SDS011;45812;53.540;9.774;2023-03-01T08:37:41;11.98;;;4.85;;
59950;SDS011;45812;53.540;9.774;2023-03-01T08:40:06;12.82;;;5.20;;
59950;SDS011;45812;53.540;9.774;2023-03-01T08:42:32;6.68;;;4.55;;
59950;SDS011;45812;53.540;9.774;2023-03-01T08:44:58;13.55;;;5.07;;
59950;SDS011;45812;53.540;9.774;2023-03-01T08:47:23;12.70;;;6.30;;
59950;SDS011;45812;53.540;9.774;2023-03-01T08:49:49;18.00;;;7.57;;
59950;SDS011;45812;53.540;9.774;2023-03-01T08:52:15;17.80;;;8.00;;
59950;SDS011;45812;53.540;9.774;2023-03-01T08:54:40;16.85;;;7.50;;
59950;SDS011;45812;53.540;9.774;2023-03-01T08:57:05;14.52;;;7.57;;
59950;SDS011;45812;53.540;9.774;2023-03-01T08:59:31;16.77;;;7.72;;
59950;SDS011;45812;53.540;9.774;2023-03-01T09:02:00;16.77;;;8.13;;
59950;SDS011;45812;53.540;9.774;2023-03-01T09:04:25;15.48;;;7.80;;
59950;SDS011;45812;53.540;9.774;2023-03-01T09:06:51;17.88;;;7.78;;
59950;SDS011;45812;53.540;9.774;2023-03-01T09:09:16;15.15;;;7.68;;
59950;SDS011;45812;53.540;9.774;2023-03-01T09:11:43;15.30;;;7.18;;
59950;SDS011;45812;53.540;9.774;2023-03-01T09:14:11;17.17;;;6.82;;
59950;SDS011;45812;53.540;9.774;2023-03-01T09:16:37;14.88;;;7.80;;
59950;SDS011;45812;53.540;9.774;2023-03-01T09:19:02;16.65;;;7.63;;
59950;SDS011;45812;53.540;9.774;2023-03-01T09:21:28;16.42;;;7.15;;
59950;SDS011;45812;53.540;9.774;2023-03-01T09:23:55;13.20;;;6.72;;
59950;SDS011;45812;53.540;9.774;2023-03-01T09:26:21;14.50;;;7.97;;
59950;SDS011;45812;53.540;9.774;2023-03-01T09:28:48;13.02;;;7.35;;
59950;SDS011;45812;53.540;9.774;2023-03-01T09:31:16;14.68;;;7.07;;
59950;SDS011;45812;53.540;9.774;2023-03-01T09:33:45;15.30;;;7.53;;
59950;SDS011;45812;53.540;9.774;2023-03-01T09:36:13;14.63;;;7.00;;
59950;SDS011;45812;53.540;9.774;2023-03-01T09:38:40;12.27;;;7.18;;
59950;SDS011;45812;53.540;9.774;2023-03-01T09:41:10;16.35;;;7.53;;
59950;SDS011;45812;53.540;9.774;2023-03-01T09:43:50;12.23;;;6.65;;
59950;SDS011;45812;53.540;9.774;2023-03-01T09:51:30;12.40;;;6.57;;
59950;SDS011;45812;53.540;9.774;2023-03-01T09:53:58;10.88;;;6.10;;
59950;SDS011;45812;53.540;9.774;2023-03-01T09:56:43;11.13;;;6.03;;
59950;SDS011;45812;53.540;9.774;2023-03-01T10:04:28;11.45;;;6.03;;
59950;SDS011;45812;53.540;9.774;2023-03-01T10:09:34;10.35;;;5.25;;
59950;SDS011;45812;53.540;9.774;2023-03-01T10:12:02;10.68;;;5.47;;
59950;SDS011;45812;53.540;9.774;2023-03-01T10:17:36;11.32;;;6.25;;
59950;SDS011;45812;53.540;9.774;2023-03-01T10:20:26;15.32;;;5.97;;
59950;SDS011;45812;53.540;9.774;2023-03-01T10:22:57;9.38;;;5.40;;
59950;SDS011;45812;53.540;9.774;2023-03-01T10:30:53;7.13;;;4.40;;
59950;SDS011;45812;53.540;9.774;2023-03-01T10:35:50;8.65;;;5.15;;
59950;SDS011;45812;53.540;9.774;2023-03-01T10:38:16;8.27;;;5.03;;
59950;SDS011;45812;53.540;9.774;2023-03-01T10:40:52;7.50;;;4.47;;
59950;SDS011;45812;53.540;9.774;2023-03-01T10:43:19;7.93;;;4.97;;
59950;SDS011;45812;53.540;9.774;2023-03-01T10:45:45;7.20;;;5.13;;
59950;SDS011;45812;53.540;9.774;2023-03-01T10:53:27;9.73;;;5.00;;
59950;SDS011;45812;53.540;9.774;2023-03-01T10:56:13;10.45;;;5.43;;
59950;SDS011;45812;53.540;9.774;2023-03-01T10:58:41;10.63;;;5.53;;
59950;SDS011;45812;53.540;9.774;2023-03-01T11:04:03;7.63;;;4.33;;
59950;SDS011;45812;53.540;9.774;2023-03-01T11:06:31;10.63;;;5.10;;
59950;SDS011;45812;53.540;9.774;2023-03-01T11:08:57;10.10;;;5.03;;
59950;SDS011;45812;53.540;9.774;2023-03-01T11:11:42;9.23;;;5.10;;
59950;SDS011;45812;53.540;9.774;2023-03-01T11:14:21;8.63;;;4.72;;
59950;SDS011;45812;53.540;9.774;2023-03-01T11:16:49;13.13;;;5.97;;
59950;SDS011;45812;53.540;9.774;2023-03-01T11:19:27;11.88;;;6.05;;
59950;SDS011;45812;53.540;9.774;2023-03-01T11:22:03;12.40;;;5.57;;
59950;SDS011;45812;53.540;9.774;2023-03-01T11:24:36;11.00;;;5.18;;
59950;SDS011;45812;53.540;9.774;2023-03-01T11:27:11;13.13;;;5.72;;
59950;SDS011;45812;53.540;9.774;2023-03-01T11:29:43;12.85;;;5.55;;
59950;SDS011;45812;53.540;9.774;2023-03-01T11:32:12;10.32;;;5.30;;
59950;SDS011;45812;53.540;9.774;2023-03-01T11:37:36;9.70;;;5.32;;
59950;SDS011;45812;53.540;9.774;2023-03-01T11:40:16;11.25;;;5.10;;
59950;SDS011;45812;53.540;9.774;2023-03-01T11:42:54;11.57;;;5.65;;
59950;SDS011;45812;53.540;9.774;2023-03-01T11:48:46;12.88;;;5.82;;
59950;SDS011;45812;53.540;9.774;2023-03-01T11:51:47;11.48;;;5.15;;
59950;SDS011;45812;53.540;9.774;2023-03-01T12:19:48;12.88;;;6.60;;
59950;SDS011;45812;53.540;9.774;2023-03-01T12:22:29;13.45;;;6.60;;
59950;SDS011;45812;53.540;9.774;2023-03-01T12:42:17;16.83;;;7.50;;
59950;SDS011;45812;53.540;9.774;2023-03-01T12:45:16;15.40;;;7.57;;
59950;SDS011;45812;53.540;9.774;2023-03-01T12:50:47;15.30;;;7.38;;
59950;SDS011;45812;53.540;9.774;2023-03-01T12:55:49;15.07;;;7.05;;
59950;SDS011;45812;53.540;9.774;2023-03-01T13:03:33;14.20;;;6.83;;
59950;SDS011;45812;53.540;9.774;2023-03-01T13:06:19;16.48;;;7.90;;
59950;SDS011;45812;53.540;9.774;2023-03-01T13:11:42;13.27;;;7.38;;
59950;SDS011;45812;53.540;9.774;2023-03-01T13:16:46;19.73;;;9.05;;
59950;SDS011;45812;53.540;9.774;2023-03-01T13:19:20;19.48;;;9.20;;
59950;SDS011;45812;53.540;9.774;2023-03-01T13:21:48;20.13;;;8.68;;
59950;SDS011;45812;53.540;9.774;2023-03-01T13:29:47;20.15;;;10.13;;
59950;SDS011;45812;53.540;9.774;2023-03-01T13:32:58;20.02;;;10.27;;
59950;SDS011;45812;53.540;9.774;2023-03-01T13:37:39;22.35;;;11.52;;
59950;SDS011;45812;53.540;9.774;2023-03-01T13:40:57;22.63;;;11.02;;
59950;SDS011;45812;53.540;9.774;2023-03-01T13:42:50;23.88;;;11.35;;
59950;SDS011;45812;53.540;9.774;2023-03-01T13:48:09;23.95;;;11.82;;
59950;SDS011;45812;53.540;9.774;2023-03-01T13:50:46;24.00;;;11.50;;
59950;SDS011;45812;53.540;9.774;2023-03-01T13:53:19;25.07;;;12.67;;
59950;SDS011;45812;53.540;9.774;2023-03-01T13:55:48;24.52;;;12.32;;
59950;SDS011;45812;53.540;9.774;2023-03-01T13:58:32;25.70;;;11.48;;
59950;SDS011;45812;53.540;9.774;2023-03-01T14:01:00;22.63;;;11.70;;
59950;SDS011;45812;53.540;9.774;2023-03-01T14:03:31;23.88;;;11.63;;
59950;SDS011;45812;53.540;9.774;2023-03-01T14:08:27;21.88;;;11.27;;
59950;SDS011;45812;53.540;9.774;2023-03-01T14:10:58;21.83;;;10.85;;
59950;SDS011;45812;53.540;9.774;2023-03-01T14:19:25;21.48;;;11.13;;
59950;SDS011;45812;53.540;9.774;2023-03-01T14:24:49;21.88;;;11.38;;
59950;SDS011;45812;53.540;9.774;2023-03-01T14:27:15;19.45;;;10.05;;
59950;SDS011;45812;53.540;9.774;2023-03-01T14:29:41;22.38;;;10.88;;
59950;SDS011;45812;53.540;9.774;2023-03-01T14:32:18;18.05;;;9.60;;
59950;SDS011;45812;53.540;9.774;2023-03-01T14:34:46;21.48;;;10.27;;
59950;SDS011;45812;53.540;9.774;2023-03-01T14:37:29;18.95;;;9.48;;
59950;SDS011;45812;53.540;9.774;2023-03-01T14:39:58;21.42;;;9.57;;
59950;SDS011;45812;53.540;9.774;2023-03-01T14:42:25;19.38;;;9.95;;
59950;SDS011;45812;53.540;9.774;2023-03-01T14:44:53;19.80;;;9.57;;
59950;SDS011;45812;53.540;9.774;2023-03-01T14:47:23;21.88;;;9.88;;
59950;SDS011;45812;53.540;9.774;2023-03-01T14:49:54;19.73;;;10.05;;
59950;SDS011;45812;53.540;9.774;2023-03-01T14:52:23;17.17;;;9.02;;
59950;SDS011;45812;53.540;9.774;2023-03-01T14:54:56;17.58;;;8.75;;
59950;SDS011;45812;53.540;9.774;2023-03-01T14:57:22;15.30;;;8.10;;
59950;SDS011;45812;53.540;9.774;2023-03-01T14:59:51;14.00;;;7.68;;
59950;SDS011;45812;53.540;9.774;2023-03-01T15:02:21;17.10;;;8.32;;
59950;SDS011;45812;53.540;9.774;2023-03-01T15:04:49;17.52;;;7.78;;
59950;SDS011;45812;53.540;9.774;2023-03-01T15:07:17;17.90;;;7.72;;
59950;SDS011;45812;53.540;9.774;2023-03-01T15:09:43;14.73;;;7.85;;
59950;SDS011;45812;53.540;9.774;2023-03-01T15:12:25;14.25;;;7.20;;
59950;SDS011;45812;53.540;9.774;2023-03-01T15:14:54;12.32;;;6.70;;
59950;SDS011;45812;53.540;9.774;2023-03-01T15:17:26;13.18;;;6.88;;
59950;SDS011;45812;53.540;9.774;2023-03-01T15:19:57;14.60;;;8.00;;
59950;SDS011;45812;53.540;9.774;2023-03-01T15:22:23;12.02;;;6.57;;
59950;SDS011;45812;53.540;9.774;2023-03-01T15:24:52;15.30;;;7.10;;
59950;SDS011;45812;53.540;9.774;2023-03-01T15:27:20;14.80;;;6.90;;
59950;SDS011;45812;53.540;9.774;2023-03-01T15:29:58;15.05;;;7.00;;
59950;SDS011;45812;53.540;9.774;2023-03-01T15:32:29;11.13;;;6.47;;
59950;SDS011;45812;53.540;9.774;2023-03-01T15:35:00;18.13;;;7.85;;
59950;SDS011;45812;53.540;9.774;2023-03-01T15:37:46;11.88;;;7.25;;
59950;SDS011;45812;53.540;9.774;2023-03-01T15:40:24;15.88;;;8.02;;
59950;SDS011;45812;53.540;9.774;2023-03-01T15:42:57;16.88;;;8.38;;
59950;SDS011;45812;53.540;9.774;2023-03-01T15:45:27;14.68;;;7.60;;
59950;SDS011;45812;53.540;9.774;2023-03-01T15:47:57;18.33;;;8.52;;
59950;SDS011;45812;53.540;9.774;2023-03-01T15:50:29;18.40;;;7.78;;
59950;SDS011;45812;53.540;9.774;2023-03-01T15:52:57;13.10;;;7.00;;
59950;SDS011;45812;53.540;9.774;2023-03-01T15:55:26;15.20;;;7.88;;
59950;SDS011;45812;53.540;9.774;2023-03-01T15:57:58;12.73;;;7.30;;
59950;SDS011;45812;53.540;9.774;2023-03-01T16:00:25;14.95;;;7.10;;
59950;SDS011;45812;53.540;9.774;2023-03-01T16:02:51;10.48;;;5.60;;
59950;SDS011;45812;53.540;9.774;2023-03-01T16:05:21;13.32;;;5.72;;
59950;SDS011;45812;53.540;9.774;2023-03-01T16:07:48;13.45;;;5.93;;
59950;SDS011;45812;53.540;9.774;2023-03-01T16:10:15;9.93;;;5.85;;
59950;SDS011;45812;53.540;9.774;2023-03-01T16:12:40;12.15;;;6.30;;
59950;SDS011;45812;53.540;9.774;2023-03-01T16:15:48;11.95;;;5.95;;
59950;SDS011;45812;53.540;9.774;2023-03-01T16:17:55;12.73;;;6.35;;
59950;SDS011;45812;53.540;9.774;2023-03-01T16:20:22;9.70;;;5.60;;
59950;SDS011;45812;53.540;9.774;2023-03-01T16:22:48;11.82;;;6.53;;
59950;SDS011;45812;53.540;9.774;2023-03-01T16:25:15;15.02;;;6.95;;
59950;SDS011;45812;53.540;9.774;2023-03-01T16:27:42;19.33;;;7.93;;
59950;SDS011;45812;53.540;9.774;2023-03-01T16:30:09;13.88;;;7.25;;
59950;SDS011;45812;53.540;9.774;2023-03-01T16:32:39;18.55;;;7.75;;
59950;SDS011;45812;53.540;9.774;2023-03-01T16:35:05;14.25;;;7.30;;
59950;SDS011;45812;53.540;9.774;2023-03-01T16:37:32;23.70;;;8.57;;
59950;SDS011;45812;53.540;9.774;2023-03-01T16:39:58;16.50;;;8.05;;
59950;SDS011;45812;53.540;9.774;2023-03-01T16:42:24;21.05;;;9.25;;
59950;SDS011;45812;53.540;9.774;2023-03-01T16:44:53;17.52;;;8.05;;
59950;SDS011;45812;53.540;9.774;2023-03-01T16:47:20;18.20;;;8.05;;
59950;SDS011;45812;53.540;9.774;2023-03-01T16:49:45;18.65;;;7.60;;
59950;SDS011;45812;53.540;9.774;2023-03-01T16:52:11;17.17;;;7.63;;
59950;SDS011;45812;53.540;9.774;2023-03-01T16:54:36;17.70;;;7.40;;